Detall de PIREP

Printer-friendly versionPDF version

[2013/04/13 14:02:00]
Flight IATA:CT1020
Pilot Number:042
Company ICAO:CAT
Aircraft Type:B744/E
PAX:0
Departing Airport: KSEA
Destination Airport: KEWR
Alternate Airport:KBOS
Online: VATSIM
Route:SEA J70 MLP GTF DIK GEP DLL BAE J34 CRL J584 SLT FQM3
Flight Level:F370
No Slew and time accel
No pause
Crash detect
Detect pilot in Cockpit between each 30 and 45 minutes
14:02 Zero fuel Weight: 394088 Lbs, Fuel Weight: 150053 Lbs
14:02 VATSIM:KSEA 131337Z 22011KT 10SM BKN021 OVC110 04/00 A2988 RMK AO2
14:02 VATSIM:KEWR 131251Z 00000KT 10SM FEW010 BKN050 BKN080 BKN200 08/04 A2989 RMK AO2 SLP120 T00780044
14:02 VOICE CATALONIAN/BOEING TRANSPORT LEG 1
14:29 Parking Brakes off
14:40 Take-off
14:40 Take off Weight: 541272 Lbs
14:40 Wind: 120º @ 006 Knots Heading: 179º
14:40 POS N47º 27´ 00´´ W122º 18´ 27´´
14:40 Gear Up: 206 Knots
14:40 Flaps:4 at 206 Knots
14:40 Flaps:3 at 211 Knots
14:40 Flaps:2 at 245 Knots
14:40 Flaps:1 at 245 Knots
14:41 Flaps:0 at 242 Knots
14:55 Wind:278º@093 Knots Heading: 090º Ground Speed: 570 Knots Altitude 32608 ft
14:57 TOC
14:57 Fuel Weight: 134663 Lb
14:58 TOD
14:58 Fuel Weight: 134440 Lb
14:58 TOC
14:58 Fuel Weight: 134433 Lb
14:59 TOD
14:59 Fuel Weight: 134129 Lb
14:59 TOC
14:59 Fuel Weight: 134119 Lb
15:00 TOD
15:00 Fuel Weight: 133801 Lb
15:00 TOC
15:00 Fuel Weight: 133778 Lb
15:01 TOD
15:01 Fuel Weight: 133450 Lb
15:01 TOC
15:01 Fuel Weight: 133441 Lb
15:02 TOD
15:02 Fuel Weight: 133177 Lb
15:02 TOC
15:02 Fuel Weight: 133169 Lb
15:03 TOD
15:03 Fuel Weight: 132862 Lb
15:03 TOC
15:03 Fuel Weight: 132828 Lb
15:04 TOD
15:04 Fuel Weight: 132530 Lb
15:04 TOC
15:04 Fuel Weight: 132510 Lb
15:05 TOD
15:05 Fuel Weight: 132199 Lb
15:05 TOC
15:05 Fuel Weight: 132169 Lb
15:06 TOD
15:06 Fuel Weight: 131837 Lb
15:07 TOC
15:07 Fuel Weight: 131811 Lb
15:07 TOD
15:07 Fuel Weight: 131479 Lb
15:08 TOC
15:08 Fuel Weight: 131458 Lb
15:10 Wind:276º@072 Knots Heading: 087º Ground Speed: 543 Knots Altitude 39028 ft
15:25 Wind:275º@055 Knots Heading: 089º Ground Speed: 535 Knots Altitude 40593 ft
15:40 Wind:270º@063 Knots Heading: 094º Ground Speed: 547 Knots Altitude 40482 ft
15:55 Wind:270º@062 Knots Heading: 096º Ground Speed: 537 Knots Altitude 40593 ft
16:10 Wind:269º@061 Knots Heading: 099º Ground Speed: 532 Knots Altitude 40761 ft
16:25 Wind:270º@061 Knots Heading: 104º Ground Speed: 532 Knots Altitude 40895 ft
16:40 Wind:270º@058 Knots Heading: 106º Ground Speed: 524 Knots Altitude 41010 ft
16:55 Wind:270º@062 Knots Heading: 109º Ground Speed: 526 Knots Altitude 40971 ft
17:10 Wind:276º@059 Knots Heading: 123º Ground Speed: 522 Knots Altitude 40971 ft
17:25 Wind:280º@054 Knots Heading: 113º Ground Speed: 522 Knots Altitude 40964 ft
17:40 Wind:285º@054 Knots Heading: 099º Ground Speed: 523 Knots Altitude 40944 ft
17:55 Wind:286º@049 Knots Heading: 114º Ground Speed: 520 Knots Altitude 40931 ft
18:10 Wind:286º@054 Knots Heading: 096º Ground Speed: 528 Knots Altitude 40971 ft
18:25 Wind:286º@057 Knots Heading: 100º Ground Speed: 534 Knots Altitude 40980 ft
18:30 TOD
18:30 Fuel Weight: 71095 Lb
18:40 Wind:313º@043 Knots Heading: 107º Ground Speed: 389 Knots Altitude 16410 ft
18:47 Flaps:1 at 235 Knots
18:47 Flaps:2 at 233 Knots
18:49 Flaps:3 at 199 Knots
18:51 Gear Down: 196 Knots
18:51 Flaps:5 at 196 Knots
18:51 Flaps:6 at 194 Knots
18:51 Flaps:5 at 194 Knots
18:51 Flaps:6 at 184 Knots
18:51 Flaps:5 at 182 Knots
18:51 Flaps:6 at 179 Knots
18:51 Flaps:5 at 178 Knots
18:51 Flaps:6 at 176 Knots
18:51Flaps:5 at 174 Knots
18:51 Flaps:6 at 169 Knots
18:54 TouchDown:Rate -163 ft/min Speed: 124 Knots
18:55 VATSIM:KEWR 131751Z 00000KT 10SM FEW030 BKN050 13/01 A2988 RMK AO2 SLP117 T01280006 10128 20067 58012
18:55 Land
18:55 Wind:032º@006 Knots
18:55 Heading: 025º
18:55 Flight Duration: 04:15
18:55 Landing Weight: 460620 Lbs
18:55 POS N40º 41´ 28´´ W074º 10´ 09´´
19:02 Parking brakes on
19:02 Block to Block Duration: 04:33
19:02 Final Fuel: 65152 Lbls
19:02 Spent Fuel: 84900 Lbls
19:02 Flight Length: 2010 NM
19:02 TOD Land Length: 134 NM

Exportar CSV

Powered by Drupal - Modified by Danger4k